sensor_id;sensor_type;location;lat;lon;timestamp;P1;durP1;ratioP1;P2;durP2;ratioP2
52318;SDS011;38258;51.148;14.068;2023-03-14T00:00:49;2.15;;;1.10;;
52318;SDS011;38258;51.148;14.068;2023-03-14T00:03:17;1.50;;;1.10;;
52318;SDS011;38258;51.148;14.068;2023-03-14T00:05:44;3.17;;;1.42;;
52318;SDS011;38258;51.148;14.068;2023-03-14T00:08:11;1.65;;;1.00;;
52318;SDS011;38258;51.148;14.068;2023-03-14T00:10:38;2.35;;;1.38;;
52318;SDS011;38258;51.148;14.068;2023-03-14T00:13:05;2.08;;;1.30;;
52318;SDS011;38258;51.148;14.068;2023-03-14T00:15:32;2.40;;;1.55;;
52318;SDS011;38258;51.148;14.068;2023-03-14T00:17:59;3.13;;;1.65;;
52318;SDS011;38258;51.148;14.068;2023-03-14T00:20:27;2.65;;;1.80;;
52318;SDS011;38258;51.148;14.068;2023-03-14T00:22:53;3.08;;;1.65;;
52318;SDS011;38258;51.148;14.068;2023-03-14T00:25:20;2.22;;;1.48;;
52318;SDS011;38258;51.148;14.068;2023-03-14T00:27:46;1.58;;;1.25;;
52318;SDS011;38258;51.148;14.068;2023-03-14T00:30:13;2.08;;;1.30;;
52318;SDS011;38258;51.148;14.068;2023-03-14T00:32:39;2.80;;;1.90;;
52318;SDS011;38258;51.148;14.068;2023-03-14T00:35:08;2.22;;;1.52;;
52318;SDS011;38258;51.148;14.068;2023-03-14T00:37:36;3.05;;;1.83;;
52318;SDS011;38258;51.148;14.068;2023-03-14T00:40:05;3.20;;;1.92;;
52318;SDS011;38258;51.148;14.068;2023-03-14T00:42:33;3.35;;;1.98;;
52318;SDS011;38258;51.148;14.068;2023-03-14T00:45:00;2.80;;;1.73;;
52318;SDS011;38258;51.148;14.068;2023-03-14T00:47:26;2.22;;;1.88;;
52318;SDS011;38258;51.148;14.068;2023-03-14T00:49:53;4.80;;;2.22;;
52318;SDS011;38258;51.148;14.068;2023-03-14T00:52:19;4.30;;;2.15;;
52318;SDS011;38258;51.148;14.068;2023-03-14T00:54:47;2.95;;;2.00;;
52318;SDS011;38258;51.148;14.068;2023-03-14T00:57:13;4.95;;;2.60;;
52318;SDS011;38258;51.148;14.068;2023-03-14T00:59:40;5.07;;;2.55;;
52318;SDS011;38258;51.148;14.068;2023-03-14T01:02:07;4.28;;;2.83;;
52318;SDS011;38258;51.148;14.068;2023-03-14T01:04:33;5.63;;;2.78;;
52318;SDS011;38258;51.148;14.068;2023-03-14T01:07:00;5.68;;;2.92;;
52318;SDS011;38258;51.148;14.068;2023-03-14T01:09:26;4.68;;;2.25;;
52318;SDS011;38258;51.148;14.068;2023-03-14T01:11:54;4.45;;;2.42;;
52318;SDS011;38258;51.148;14.068;2023-03-14T01:14:22;4.78;;;2.53;;
52318;SDS011;38258;51.148;14.068;2023-03-14T01:16:48;3.17;;;2.17;;
52318;SDS011;38258;51.148;14.068;2023-03-14T01:19:15;4.55;;;2.70;;
52318;SDS011;38258;51.148;14.068;2023-03-14T01:21:41;3.35;;;2.17;;
52318;SDS011;38258;51.148;14.068;2023-03-14T01:24:10;4.90;;;2.65;;
52318;SDS011;38258;51.148;14.068;2023-03-14T01:26:37;4.30;;;2.58;;
52318;SDS011;38258;51.148;14.068;2023-03-14T01:29:06;2.90;;;1.85;;
52318;SDS011;38258;51.148;14.068;2023-03-14T01:31:35;6.57;;;2.85;;
52318;SDS011;38258;51.148;14.068;2023-03-14T01:34:02;5.97;;;3.20;;
52318;SDS011;38258;51.148;14.068;2023-03-14T01:36:28;5.13;;;3.42;;
52318;SDS011;38258;51.148;14.068;2023-03-14T01:38:55;5.72;;;3.80;;
52318;SDS011;38258;51.148;14.068;2023-03-14T01:41:23;7.88;;;3.75;;
52318;SDS011;38258;51.148;14.068;2023-03-14T01:43:53;6.10;;;3.55;;
52318;SDS011;38258;51.148;14.068;2023-03-14T01:46:22;6.28;;;3.03;;
52318;SDS011;38258;51.148;14.068;2023-03-14T01:48:53;7.80;;;4.00;;
52318;SDS011;38258;51.148;14.068;2023-03-14T01:51:24;6.10;;;3.58;;
52318;SDS011;38258;51.148;14.068;2023-03-14T01:53:59;6.65;;;3.72;;
52318;SDS011;38258;51.148;14.068;2023-03-14T01:58:57;5.65;;;3.33;;
52318;SDS011;38258;51.148;14.068;2023-03-14T02:01:28;6.63;;;3.80;;
52318;SDS011;38258;51.148;14.068;2023-03-14T02:03:56;8.65;;;3.75;;
52318;SDS011;38258;51.148;14.068;2023-03-14T02:06:29;6.35;;;3.50;;
52318;SDS011;38258;51.148;14.068;2023-03-14T02:09:02;6.82;;;3.65;;
52318;SDS011;38258;51.148;14.068;2023-03-14T02:11:32;5.82;;;3.45;;
52318;SDS011;38258;51.148;14.068;2023-03-14T02:14:14;4.82;;;3.30;;
52318;SDS011;38258;51.148;14.068;2023-03-14T02:17:16;5.30;;;2.97;;
52318;SDS011;38258;51.148;14.068;2023-03-14T02:20:09;4.63;;;3.17;;
52318;SDS011;38258;51.148;14.068;2023-03-14T02:22:51;5.18;;;2.92;;
52318;SDS011;38258;51.148;14.068;2023-03-14T02:25:20;6.00;;;3.10;;
52318;SDS011;38258;51.148;14.068;2023-03-14T02:27:55;5.47;;;3.33;;
52318;SDS011;38258;51.148;14.068;2023-03-14T02:30:23;4.15;;;2.80;;
52318;SDS011;38258;51.148;14.068;2023-03-14T02:32:52;4.65;;;2.92;;
52318;SDS011;38258;51.148;14.068;2023-03-14T02:35:24;5.72;;;2.70;;
52318;SDS011;38258;51.148;14.068;2023-03-14T02:37:53;4.35;;;2.47;;
52318;SDS011;38258;51.148;14.068;2023-03-14T02:40:30;4.85;;;3.03;;
52318;SDS011;38258;51.148;14.068;2023-03-14T02:42:58;4.03;;;2.40;;
52318;SDS011;38258;51.148;14.068;2023-03-14T02:45:31;4.38;;;2.65;;
52318;SDS011;38258;51.148;14.068;2023-03-14T02:48:02;4.05;;;2.42;;
52318;SDS011;38258;51.148;14.068;2023-03-14T02:50:34;4.68;;;2.45;;
52318;SDS011;38258;51.148;14.068;2023-03-14T02:53:01;4.35;;;2.17;;
52318;SDS011;38258;51.148;14.068;2023-03-14T02:55:29;3.38;;;2.15;;
52318;SDS011;38258;51.148;14.068;2023-03-14T02:58:00;4.13;;;2.53;;
52318;SDS011;38258;51.148;14.068;2023-03-14T03:00:27;3.80;;;2.22;;
52318;SDS011;38258;51.148;14.068;2023-03-14T03:02:55;3.28;;;2.20;;
52318;SDS011;38258;51.148;14.068;2023-03-14T03:05:22;2.95;;;1.90;;
52318;SDS011;38258;51.148;14.068;2023-03-14T03:07:49;2.13;;;1.60;;
52318;SDS011;38258;51.148;14.068;2023-03-14T03:10:16;2.55;;;1.48;;
52318;SDS011;38258;51.148;14.068;2023-03-14T03:12:43;3.95;;;2.00;;
52318;SDS011;38258;51.148;14.068;2023-03-14T03:15:11;2.53;;;1.70;;
52318;SDS011;38258;51.148;14.068;2023-03-14T03:17:39;2.42;;;1.70;;
52318;SDS011;38258;51.148;14.068;2023-03-14T03:20:05;2.10;;;1.60;;
52318;SDS011;38258;51.148;14.068;2023-03-14T03:22:34;2.05;;;1.40;;
52318;SDS011;38258;51.148;14.068;2023-03-14T03:25:01;2.42;;;1.38;;
52318;SDS011;38258;51.148;14.068;2023-03-14T03:27:29;2.42;;;1.20;;
52318;SDS011;38258;51.148;14.068;2023-03-14T03:29:56;1.60;;;1.30;;
52318;SDS011;38258;51.148;14.068;2023-03-14T03:32:23;2.28;;;1.45;;
52318;SDS011;38258;51.148;14.068;2023-03-14T03:34:50;1.80;;;1.40;;
52318;SDS011;38258;51.148;14.068;2023-03-14T03:37:17;1.67;;;1.08;;
52318;SDS011;38258;51.148;14.068;2023-03-14T03:39:44;1.83;;;1.00;;
52318;SDS011;38258;51.148;14.068;2023-03-14T03:42:11;1.42;;;1.13;;
52318;SDS011;38258;51.148;14.068;2023-03-14T03:44:38;1.38;;;1.08;;
52318;SDS011;38258;51.148;14.068;2023-03-14T03:47:05;1.70;;;1.08;;
52318;SDS011;38258;51.148;14.068;2023-03-14T03:49:33;1.95;;;1.00;;
52318;SDS011;38258;51.148;14.068;2023-03-14T03:51:59;0.95;;;0.85;;
52318;SDS011;38258;51.148;14.068;2023-03-14T03:54:26;1.05;;;0.93;;
52318;SDS011;38258;51.148;14.068;2023-03-14T03:56:53;0.88;;;0.80;;
52318;SDS011;38258;51.148;14.068;2023-03-14T03:59:20;1.33;;;0.80;;
52318;SDS011;38258;51.148;14.068;2023-03-14T04:01:47;1.00;;;0.90;;
52318;SDS011;38258;51.148;14.068;2023-03-14T04:04:14;0.70;;;0.70;;
52318;SDS011;38258;51.148;14.068;2023-03-14T04:06:42;1.13;;;0.90;;
52318;SDS011;38258;51.148;14.068;2023-03-14T04:09:08;1.60;;;1.05;;
52318;SDS011;38258;51.148;14.068;2023-03-14T04:11:55;1.27;;;0.95;;
52318;SDS011;38258;51.148;14.068;2023-03-14T04:14:30;1.30;;;1.00;;
52318;SDS011;38258;51.148;14.068;2023-03-14T04:17:10;1.33;;;1.08;;
52318;SDS011;38258;51.148;14.068;2023-03-14T04:19:37;1.13;;;1.00;;
52318;SDS011;38258;51.148;14.068;2023-03-14T04:22:06;1.55;;;1.10;;
52318;SDS011;38258;51.148;14.068;2023-03-14T04:24:38;1.02;;;0.90;;
52318;SDS011;38258;51.148;14.068;2023-03-14T04:27:04;0.90;;;0.65;;
52318;SDS011;38258;51.148;14.068;2023-03-14T04:29:33;2.10;;;0.93;;
52318;SDS011;38258;51.148;14.068;2023-03-14T04:31:59;1.35;;;0.90;;
52318;SDS011;38258;51.148;14.068;2023-03-14T04:34:26;1.67;;;1.00;;
52318;SDS011;38258;51.148;14.068;2023-03-14T04:36:55;1.75;;;0.88;;
52318;SDS011;38258;51.148;14.068;2023-03-14T04:39:32;1.10;;;0.80;;
52318;SDS011;38258;51.148;14.068;2023-03-14T04:42:15;1.60;;;1.00;;
52318;SDS011;38258;51.148;14.068;2023-03-14T04:44:42;1.50;;;0.85;;
52318;SDS011;38258;51.148;14.068;2023-03-14T04:47:09;1.10;;;1.00;;
52318;SDS011;38258;51.148;14.068;2023-03-14T04:49:37;1.00;;;0.90;;
52318;SDS011;38258;51.148;14.068;2023-03-14T04:52:06;1.80;;;0.90;;
52318;SDS011;38258;51.148;14.068;2023-03-14T04:54:36;2.50;;;1.63;;
52318;SDS011;38258;51.148;14.068;2023-03-14T04:57:03;4.43;;;2.42;;
52318;SDS011;38258;51.148;14.068;2023-03-14T04:59:32;6.05;;;3.05;;
52318;SDS011;38258;51.148;14.068;2023-03-14T05:02:09;5.63;;;2.40;;
52318;SDS011;38258;51.148;14.068;2023-03-14T05:04:53;2.75;;;1.10;;
52318;SDS011;38258;51.148;14.068;2023-03-14T05:07:38;1.38;;;0.95;;
52318;SDS011;38258;51.148;14.068;2023-03-14T05:10:29;2.30;;;1.20;;
52318;SDS011;38258;51.148;14.068;2023-03-14T05:13:10;2.20;;;1.23;;
52318;SDS011;38258;51.148;14.068;2023-03-14T05:15:42;1.23;;;0.70;;
52318;SDS011;38258;51.148;14.068;2023-03-14T05:18:39;0.73;;;0.70;;
52318;SDS011;38258;51.148;14.068;2023-03-14T05:21:11;0.70;;;0.70;;
52318;SDS011;38258;51.148;14.068;2023-03-14T05:24:03;0.45;;;0.45;;
52318;SDS011;38258;51.148;14.068;2023-03-14T05:26:46;0.88;;;0.60;;
52318;SDS011;38258;51.148;14.068;2023-03-14T05:29:25;0.70;;;0.70;;
52318;SDS011;38258;51.148;14.068;2023-03-14T05:32:05;0.98;;;0.82;;
52318;SDS011;38258;51.148;14.068;2023-03-14T05:35:04;0.40;;;0.40;;
52318;SDS011;38258;51.148;14.068;2023-03-14T05:37:48;1.42;;;0.75;;
52318;SDS011;38258;51.148;14.068;2023-03-14T05:40:20;2.70;;;0.80;;
52318;SDS011;38258;51.148;14.068;2023-03-14T05:43:18;1.30;;;0.57;;
52318;SDS011;38258;51.148;14.068;2023-03-14T05:46:10;0.47;;;0.47;;
52318;SDS011;38258;51.148;14.068;2023-03-14T05:48:55;0.45;;;0.43;;
52318;SDS011;38258;51.148;14.068;2023-03-14T05:51:33;0.40;;;0.40;;
52318;SDS011;38258;51.148;14.068;2023-03-14T05:54:16;0.95;;;0.75;;
52318;SDS011;38258;51.148;14.068;2023-03-14T05:57:05;0.50;;;0.50;;
52318;SDS011;38258;51.148;14.068;2023-03-14T05:59:41;0.80;;;0.60;;
52318;SDS011;38258;51.148;14.068;2023-03-14T06:02:20;2.28;;;0.68;;
52318;SDS011;38258;51.148;14.068;2023-03-14T06:04:56;1.02;;;0.82;;
52318;SDS011;38258;51.148;14.068;2023-03-14T06:07:23;1.35;;;0.70;;
52318;SDS011;38258;51.148;14.068;2023-03-14T06:09:50;1.98;;;0.63;;
52318;SDS011;38258;51.148;14.068;2023-03-14T06:12:17;2.90;;;1.08;;
52318;SDS011;38258;51.148;14.068;2023-03-14T06:14:46;1.05;;;0.60;;
52318;SDS011;38258;51.148;14.068;2023-03-14T06:17:13;0.50;;;0.50;;
52318;SDS011;38258;51.148;14.068;2023-03-14T06:19:48;0.63;;;0.50;;
52318;SDS011;38258;51.148;14.068;2023-03-14T06:22:15;0.95;;;0.70;;
52318;SDS011;38258;51.148;14.068;2023-03-14T06:24:42;1.85;;;0.70;;
52318;SDS011;38258;51.148;14.068;2023-03-14T06:27:09;0.95;;;0.68;;
52318;SDS011;38258;51.148;14.068;2023-03-14T06:29:35;0.73;;;0.70;;
52318;SDS011;38258;51.148;14.068;2023-03-14T06:32:04;1.85;;;0.75;;
52318;SDS011;38258;51.148;14.068;2023-03-14T06:34:31;1.02;;;0.55;;
52318;SDS011;38258;51.148;14.068;2023-03-14T06:36:58;1.05;;;0.70;;
52318;SDS011;38258;51.148;14.068;2023-03-14T06:39:25;2.08;;;0.88;;
52318;SDS011;38258;51.148;14.068;2023-03-14T06:42:01;4.80;;;0.95;;
52318;SDS011;38258;51.148;14.068;2023-03-14T06:44:28;1.08;;;0.80;;
52318;SDS011;38258;51.148;14.068;2023-03-14T06:46:55;1.38;;;1.02;;
52318;SDS011;38258;51.148;14.068;2023-03-14T06:49:24;1.30;;;0.80;;
52318;SDS011;38258;51.148;14.068;2023-03-14T06:51:53;2.58;;;1.13;;
52318;SDS011;38258;51.148;14.068;2023-03-14T06:54:20;3.22;;;1.02;;
52318;SDS011;38258;51.148;14.068;2023-03-14T06:56:47;1.45;;;0.85;;
52318;SDS011;38258;51.148;14.068;2023-03-14T06:59:14;0.50;;;0.50;;
52318;SDS011;38258;51.148;14.068;2023-03-14T07:01:44;0.50;;;0.50;;
52318;SDS011;38258;51.148;14.068;2023-03-14T07:04:11;2.40;;;0.70;;
52318;SDS011;38258;51.148;14.068;2023-03-14T07:06:43;2.38;;;0.73;;
52318;SDS011;38258;51.148;14.068;2023-03-14T07:09:11;2.95;;;0.73;;
52318;SDS011;38258;51.148;14.068;2023-03-14T07:11:43;2.00;;;0.57;;
52318;SDS011;38258;51.148;14.068;2023-03-14T07:14:10;1.85;;;0.70;;
52318;SDS011;38258;51.148;14.068;2023-03-14T07:16:38;1.40;;;0.63;;
52318;SDS011;38258;51.148;14.068;2023-03-14T07:19:06;0.60;;;0.60;;
52318;SDS011;38258;51.148;14.068;2023-03-14T07:21:33;0.38;;;0.38;;
52318;SDS011;38258;51.148;14.068;2023-03-14T07:24:05;1.17;;;0.90;;
52318;SDS011;38258;51.148;14.068;2023-03-14T07:26:32;2.25;;;0.82;;
52318;SDS011;38258;51.148;14.068;2023-03-14T07:28:59;1.42;;;0.85;;
52318;SDS011;38258;51.148;14.068;2023-03-14T07:31:28;1.02;;;0.75;;
52318;SDS011;38258;51.148;14.068;2023-03-14T07:33:55;1.83;;;0.73;;
52318;SDS011;38258;51.148;14.068;2023-03-14T07:36:28;2.17;;;0.80;;
52318;SDS011;38258;51.148;14.068;2023-03-14T07:38:55;1.25;;;0.80;;
52318;SDS011;38258;51.148;14.068;2023-03-14T07:41:33;1.10;;;0.60;;
52318;SDS011;38258;51.148;14.068;2023-03-14T07:44:19;0.80;;;0.80;;
52318;SDS011;38258;51.148;14.068;2023-03-14T07:46:45;0.52;;;0.52;;
52318;SDS011;38258;51.148;14.068;2023-03-14T07:49:12;1.13;;;0.70;;
52318;SDS011;38258;51.148;14.068;2023-03-14T07:51:39;0.55;;;0.50;;
52318;SDS011;38258;51.148;14.068;2023-03-14T07:54:06;2.58;;;0.98;;
52318;SDS011;38258;51.148;14.068;2023-03-14T07:56:34;1.48;;;0.77;;
52318;SDS011;38258;51.148;14.068;2023-03-14T07:59:01;1.50;;;0.70;;
52318;SDS011;38258;51.148;14.068;2023-03-14T08:01:28;1.92;;;0.82;;
52318;SDS011;38258;51.148;14.068;2023-03-14T08:03:55;1.98;;;0.90;;
52318;SDS011;38258;51.148;14.068;2023-03-14T08:06:22;3.30;;;0.90;;
52318;SDS011;38258;51.148;14.068;2023-03-14T08:08:48;2.33;;;1.00;;
52318;SDS011;38258;51.148;14.068;2023-03-14T08:11:15;1.17;;;0.80;;
52318;SDS011;38258;51.148;14.068;2023-03-14T08:13:44;1.63;;;0.80;;
52318;SDS011;38258;51.148;14.068;2023-03-14T08:16:14;1.23;;;0.95;;
52318;SDS011;38258;51.148;14.068;2023-03-14T08:18:41;2.35;;;1.20;;
52318;SDS011;38258;51.148;14.068;2023-03-14T08:21:08;1.58;;;0.98;;
52318;SDS011;38258;51.148;14.068;2023-03-14T08:23:35;4.30;;;1.92;;
52318;SDS011;38258;51.148;14.068;2023-03-14T08:26:02;3.38;;;2.08;;
52318;SDS011;38258;51.148;14.068;2023-03-14T08:28:29;2.67;;;1.10;;
52318;SDS011;38258;51.148;14.068;2023-03-14T08:31:00;1.98;;;1.23;;
52318;SDS011;38258;51.148;14.068;2023-03-14T08:33:28;4.57;;;1.15;;
52318;SDS011;38258;51.148;14.068;2023-03-14T08:35:55;2.42;;;1.10;;
52318;SDS011;38258;51.148;14.068;2023-03-14T08:38:24;1.35;;;0.90;;
52318;SDS011;38258;51.148;14.068;2023-03-14T08:40:54;5.65;;;3.25;;
52318;SDS011;38258;51.148;14.068;2023-03-14T08:43:22;1.05;;;0.65;;
52318;SDS011;38258;51.148;14.068;2023-03-14T08:45:49;7.07;;;2.90;;
52318;SDS011;38258;51.148;14.068;2023-03-14T08:48:17;2.63;;;0.90;;
52318;SDS011;38258;51.148;14.068;2023-03-14T08:50:44;1.42;;;0.90;;
52318;SDS011;38258;51.148;14.068;2023-03-14T08:53:11;0.68;;;0.60;;
52318;SDS011;38258;51.148;14.068;2023-03-14T08:55:38;2.78;;;0.63;;
52318;SDS011;38258;51.148;14.068;2023-03-14T08:58:05;1.45;;;1.02;;
52318;SDS011;38258;51.148;14.068;2023-03-14T09:00:31;2.25;;;0.80;;
52318;SDS011;38258;51.148;14.068;2023-03-14T09:02:58;1.73;;;0.82;;
52318;SDS011;38258;51.148;14.068;2023-03-14T09:05:26;1.00;;;0.70;;
52318;SDS011;38258;51.148;14.068;2023-03-14T09:07:53;3.72;;;1.13;;
52318;SDS011;38258;51.148;14.068;2023-03-14T09:10:20;1.45;;;0.70;;
52318;SDS011;38258;51.148;14.068;2023-03-14T09:12:47;1.98;;;1.20;;
52318;SDS011;38258;51.148;14.068;2023-03-14T09:15:13;1.30;;;0.80;;
52318;SDS011;38258;51.148;14.068;2023-03-14T09:17:42;2.08;;;1.15;;
52318;SDS011;38258;51.148;14.068;2023-03-14T09:20:09;0.95;;;0.70;;
52318;SDS011;38258;51.148;14.068;2023-03-14T09:22:38;1.55;;;0.70;;
52318;SDS011;38258;51.148;14.068;2023-03-14T09:25:05;1.98;;;0.82;;
52318;SDS011;38258;51.148;14.068;2023-03-14T09:27:32;1.20;;;0.70;;
52318;SDS011;38258;51.148;14.068;2023-03-14T09:29:59;1.30;;;0.90;;
52318;SDS011;38258;51.148;14.068;2023-03-14T09:32:26;1.10;;;0.75;;
52318;SDS011;38258;51.148;14.068;2023-03-14T09:34:53;0.90;;;0.77;;
52318;SDS011;38258;51.148;14.068;2023-03-14T09:37:19;1.55;;;0.70;;
52318;SDS011;38258;51.148;14.068;2023-03-14T09:39:47;1.55;;;0.60;;
52318;SDS011;38258;51.148;14.068;2023-03-14T09:42:15;0.57;;;0.50;;
52318;SDS011;38258;51.148;14.068;2023-03-14T09:44:46;2.08;;;0.95;;
52318;SDS011;38258;51.148;14.068;2023-03-14T09:47:19;0.75;;;0.70;;
52318;SDS011;38258;51.148;14.068;2023-03-14T09:49:47;1.58;;;0.70;;
52318;SDS011;38258;51.148;14.068;2023-03-14T09:52:15;1.17;;;0.82;;
52318;SDS011;38258;51.148;14.068;2023-03-14T09:54:46;1.45;;;1.08;;
52318;SDS011;38258;51.148;14.068;2023-03-14T09:57:17;2.63;;;1.13;;
52318;SDS011;38258;51.148;14.068;2023-03-14T09:59:47;6.85;;;3.03;;
52318;SDS011;38258;51.148;14.068;2023-03-14T10:02:17;18.10;;;6.10;;
52318;SDS011;38258;51.148;14.068;2023-03-14T10:04:45;9.00;;;4.18;;
52318;SDS011;38258;51.148;14.068;2023-03-14T10:07:14;14.25;;;5.20;;
52318;SDS011;38258;51.148;14.068;2023-03-14T10:09:44;10.73;;;3.80;;
52318;SDS011;38258;51.148;14.068;2023-03-14T10:12:15;1.75;;;1.40;;
52318;SDS011;38258;51.148;14.068;2023-03-14T10:14:46;1.30;;;0.70;;
52318;SDS011;38258;51.148;14.068;2023-03-14T10:17:15;5.18;;;2.42;;
52318;SDS011;38258;51.148;14.068;2023-03-14T10:19:53;2.22;;;1.10;;
52318;SDS011;38258;51.148;14.068;2023-03-14T10:22:23;0.73;;;0.73;;
52318;SDS011;38258;51.148;14.068;2023-03-14T10:24:53;1.85;;;1.02;;
52318;SDS011;38258;51.148;14.068;2023-03-14T10:27:28;1.33;;;0.80;;
52318;SDS011;38258;51.148;14.068;2023-03-14T10:29:57;3.08;;;1.27;;
52318;SDS011;38258;51.148;14.068;2023-03-14T10:32:28;1.48;;;1.05;;
52318;SDS011;38258;51.148;14.068;2023-03-14T10:35:06;2.03;;;0.95;;
52318;SDS011;38258;51.148;14.068;2023-03-14T10:37:50;6.82;;;3.63;;
52318;SDS011;38258;51.148;14.068;2023-03-14T10:40:20;0.82;;;0.60;;
52318;SDS011;38258;51.148;14.068;2023-03-14T10:42:55;0.85;;;0.60;;
52318;SDS011;38258;51.148;14.068;2023-03-14T10:45:27;0.88;;;0.60;;
52318;SDS011;38258;51.148;14.068;2023-03-14T10:47:58;0.73;;;0.50;;
52318;SDS011;38258;51.148;14.068;2023-03-14T10:50:32;0.80;;;0.70;;
52318;SDS011;38258;51.148;14.068;2023-03-14T10:53:00;0.80;;;0.70;;
52318;SDS011;38258;51.148;14.068;2023-03-14T10:55:39;0.60;;;0.52;;
52318;SDS011;38258;51.148;14.068;2023-03-14T10:58:18;1.60;;;1.08;;
52318;SDS011;38258;51.148;14.068;2023-03-14T11:00:46;0.80;;;0.80;;
52318;SDS011;38258;51.148;14.068;2023-03-14T11:03:18;1.95;;;1.60;;
52318;SDS011;38258;51.148;14.068;2023-03-14T11:05:48;1.42;;;1.00;;
52318;SDS011;38258;51.148;14.068;2023-03-14T11:08:19;1.92;;;1.00;;
52318;SDS011;38258;51.148;14.068;2023-03-14T11:10:50;4.07;;;1.02;;
52318;SDS011;38258;51.148;14.068;2023-03-14T11:13:23;1.83;;;1.25;;
52318;SDS011;38258;51.148;14.068;2023-03-14T11:16:00;3.20;;;1.60;;
52318;SDS011;38258;51.148;14.068;2023-03-14T11:21:28;1.73;;;1.20;;
52318;SDS011;38258;51.148;14.068;2023-03-14T11:24:02;2.83;;;1.40;;
52318;SDS011;38258;51.148;14.068;2023-03-14T11:26:41;2.65;;;1.70;;
52318;SDS011;38258;51.148;14.068;2023-03-14T11:29:19;1.98;;;1.30;;
52318;SDS011;38258;51.148;14.068;2023-03-14T11:31:47;5.97;;;2.40;;
52318;SDS011;38258;51.148;14.068;2023-03-14T11:34:15;3.67;;;2.63;;
52318;SDS011;38258;51.148;14.068;2023-03-14T11:39:19;3.78;;;2.38;;
52318;SDS011;38258;51.148;14.068;2023-03-14T11:41:47;3.60;;;2.20;;
52318;SDS011;38258;51.148;14.068;2023-03-14T11:44:19;3.42;;;2.15;;
52318;SDS011;38258;51.148;14.068;2023-03-14T11:46:49;4.30;;;2.25;;
52318;SDS011;38258;51.148;14.068;2023-03-14T11:49:24;2.80;;;1.65;;
52318;SDS011;38258;51.148;14.068;2023-03-14T11:51:59;3.28;;;1.80;;
52318;SDS011;38258;51.148;14.068;2023-03-14T11:54:33;3.03;;;1.80;;
52318;SDS011;38258;51.148;14.068;2023-03-14T11:57:10;2.15;;;1.33;;
52318;SDS011;38258;51.148;14.068;2023-03-14T11:59:45;1.60;;;1.45;;
52318;SDS011;38258;51.148;14.068;2023-03-14T12:02:20;2.22;;;1.50;;
52318;SDS011;38258;51.148;14.068;2023-03-14T12:05:01;2.78;;;1.40;;
52318;SDS011;38258;51.148;14.068;2023-03-14T12:08:07;1.65;;;1.35;;
52318;SDS011;38258;51.148;14.068;2023-03-14T12:11:00;3.45;;;1.67;;
52318;SDS011;38258;51.148;14.068;2023-03-14T12:13:31;2.75;;;1.80;;
52318;SDS011;38258;51.148;14.068;2023-03-14T12:16:03;8.90;;;2.92;;
52318;SDS011;38258;51.148;14.068;2023-03-14T12:18:32;2.75;;;1.50;;
52318;SDS011;38258;51.148;14.068;2023-03-14T12:21:03;3.17;;;1.70;;
52318;SDS011;38258;51.148;14.068;2023-03-14T12:23:36;2.25;;;1.23;;
52318;SDS011;38258;51.148;14.068;2023-03-14T12:26:12;1.65;;;1.08;;
52318;SDS011;38258;51.148;14.068;2023-03-14T12:28:42;6.07;;;2.05;;
52318;SDS011;38258;51.148;14.068;2023-03-14T12:34:03;2.17;;;1.70;;
52318;SDS011;38258;51.148;14.068;2023-03-14T12:36:55;2.40;;;1.30;;
52318;SDS011;38258;51.148;14.068;2023-03-14T12:39:31;2.03;;;1.25;;
52318;SDS011;38258;51.148;14.068;2023-03-14T12:42:05;1.25;;;1.15;;
52318;SDS011;38258;51.148;14.068;2023-03-14T12:50:33;2.95;;;1.48;;
52318;SDS011;38258;51.148;14.068;2023-03-14T12:56:20;2.33;;;1.45;;
52318;SDS011;38258;51.148;14.068;2023-03-14T12:59:02;2.38;;;1.58;;
52318;SDS011;38258;51.148;14.068;2023-03-14T13:01:45;2.78;;;1.33;;
52318;SDS011;38258;51.148;14.068;2023-03-14T13:04:15;2.33;;;1.20;;
52318;SDS011;38258;51.148;14.068;2023-03-14T13:06:50;1.85;;;1.20;;
52318;SDS011;38258;51.148;14.068;2023-03-14T13:09:35;2.85;;;1.40;;
52318;SDS011;38258;51.148;14.068;2023-03-14T13:12:16;2.25;;;1.48;;
52318;SDS011;38258;51.148;14.068;2023-03-14T13:14:45;9.25;;;4.15;;
52318;SDS011;38258;51.148;14.068;2023-03-14T13:17:14;5.95;;;2.70;;
52318;SDS011;38258;51.148;14.068;2023-03-14T13:19:55;4.93;;;2.60;;
52318;SDS011;38258;51.148;14.068;2023-03-14T13:22:26;3.90;;;1.90;;
52318;SDS011;38258;51.148;14.068;2023-03-14T13:24:59;3.65;;;1.42;;
52318;SDS011;38258;51.148;14.068;2023-03-14T13:27:29;0.95;;;0.90;;
52318;SDS011;38258;51.148;14.068;2023-03-14T13:29:58;2.50;;;1.35;;
52318;SDS011;38258;51.148;14.068;2023-03-14T13:32:26;1.33;;;0.90;;
52318;SDS011;38258;51.148;14.068;2023-03-14T13:34:56;3.25;;;1.52;;
52318;SDS011;38258;51.148;14.068;2023-03-14T13:37:24;1.52;;;0.93;;
52318;SDS011;38258;51.148;14.068;2023-03-14T13:39:52;0.68;;;0.68;;
52318;SDS011;38258;51.148;14.068;2023-03-14T13:42:20;2.50;;;1.05;;
52318;SDS011;38258;51.148;14.068;2023-03-14T13:44:51;0.70;;;0.70;;
52318;SDS011;38258;51.148;14.068;2023-03-14T13:47:21;0.30;;;0.30;;
52318;SDS011;38258;51.148;14.068;2023-03-14T13:49:50;0.80;;;0.60;;
52318;SDS011;38258;51.148;14.068;2023-03-14T13:52:23;0.52;;;0.52;;
52318;SDS011;38258;51.148;14.068;2023-03-14T13:54:53;0.60;;;0.60;;
52318;SDS011;38258;51.148;14.068;2023-03-14T13:57:20;4.18;;;1.50;;
52318;SDS011;38258;51.148;14.068;2023-03-14T13:59:58;0.90;;;0.90;;
52318;SDS011;38258;51.148;14.068;2023-03-14T14:02:26;11.55;;;3.40;;
52318;SDS011;38258;51.148;14.068;2023-03-14T14:04:54;2.20;;;1.20;;
52318;SDS011;38258;51.148;14.068;2023-03-14T14:07:23;2.22;;;0.90;;
52318;SDS011;38258;51.148;14.068;2023-03-14T14:09:51;1.33;;;0.88;;
52318;SDS011;38258;51.148;14.068;2023-03-14T14:12:20;2.30;;;1.15;;
52318;SDS011;38258;51.148;14.068;2023-03-14T14:14:55;1.17;;;0.70;;
52318;SDS011;38258;51.148;14.068;2023-03-14T14:17:26;0.68;;;0.68;;
52318;SDS011;38258;51.148;14.068;2023-03-14T14:19:57;1.85;;;0.95;;
52318;SDS011;38258;51.148;14.068;2023-03-14T14:22:27;0.60;;;0.60;;
52318;SDS011;38258;51.148;14.068;2023-03-14T14:24:54;1.52;;;1.00;;
52318;SDS011;38258;51.148;14.068;2023-03-14T14:27:24;0.95;;;0.80;;
52318;SDS011;38258;51.148;14.068;2023-03-14T14:29:57;1.20;;;0.77;;
52318;SDS011;38258;51.148;14.068;2023-03-14T14:32:26;0.57;;;0.52;;
52318;SDS011;38258;51.148;14.068;2023-03-14T14:34:56;4.05;;;1.35;;
52318;SDS011;38258;51.148;14.068;2023-03-14T14:37:25;3.95;;;1.60;;
52318;SDS011;38258;51.148;14.068;2023-03-14T14:39:55;0.63;;;0.60;;
52318;SDS011;38258;51.148;14.068;2023-03-14T14:42:25;0.55;;;0.55;;
52318;SDS011;38258;51.148;14.068;2023-03-14T14:44:55;0.57;;;0.52;;
52318;SDS011;38258;51.148;14.068;2023-03-14T14:47:24;1.05;;;0.70;;
52318;SDS011;38258;51.148;14.068;2023-03-14T14:49:53;1.33;;;0.50;;
52318;SDS011;38258;51.148;14.068;2023-03-14T14:52:21;1.25;;;0.73;;
52318;SDS011;38258;51.148;14.068;2023-03-14T14:55:00;0.70;;;0.60;;
52318;SDS011;38258;51.148;14.068;2023-03-14T14:57:28;0.43;;;0.40;;
52318;SDS011;38258;51.148;14.068;2023-03-14T15:00:04;0.77;;;0.60;;
52318;SDS011;38258;51.148;14.068;2023-03-14T15:02:38;0.60;;;0.60;;
52318;SDS011;38258;51.148;14.068;2023-03-14T15:05:12;0.60;;;0.60;;
52318;SDS011;38258;51.148;14.068;2023-03-14T15:07:41;1.73;;;0.80;;
52318;SDS011;38258;51.148;14.068;2023-03-14T15:10:09;0.40;;;0.40;;
52318;SDS011;38258;51.148;14.068;2023-03-14T15:12:37;0.45;;;0.45;;
52318;SDS011;38258;51.148;14.068;2023-03-14T15:15:04;1.27;;;0.70;;